sensor_id;sensor_type;location;lat;lon;timestamp;pressure;altitude;pressure_sealevel;temperature;humidity
3444;BME280;1736;52.068;6.968;2023-04-06T00:02:09;101329.00;;;1.65;73.84
3444;BME280;1736;52.068;6.968;2023-04-06T00:04:35;101333.56;;;1.60;74.48
3444;BME280;1736;52.068;6.968;2023-04-06T00:07:02;101332.00;;;1.54;75.08
3444;BME280;1736;52.068;6.968;2023-04-06T00:09:29;101326.84;;;1.53;74.15
3444;BME280;1736;52.068;6.968;2023-04-06T00:11:55;101318.31;;;1.48;74.90
3444;BME280;1736;52.068;6.968;2023-04-06T00:14:23;101314.97;;;1.44;74.66
3444;BME280;1736;52.068;6.968;2023-04-06T00:16:49;101320.97;;;1.46;74.70
3444;BME280;1736;52.068;6.968;2023-04-06T00:19:17;101321.06;;;1.45;75.02
3444;BME280;1736;52.068;6.968;2023-04-06T00:21:44;101310.41;;;1.49;75.54
3444;BME280;1736;52.068;6.968;2023-04-06T00:24:10;101317.03;;;1.35;75.54
3444;BME280;1736;52.068;6.968;2023-04-06T00:26:37;101319.59;;;1.36;76.64
3444;BME280;1736;52.068;6.968;2023-04-06T00:29:03;101305.22;;;1.25;76.91
3444;BME280;1736;52.068;6.968;2023-04-06T00:31:30;101307.31;;;1.15;77.67
3444;BME280;1736;52.068;6.968;2023-04-06T00:33:57;101301.16;;;1.16;78.35
3444;BME280;1736;52.068;6.968;2023-04-06T00:36:26;101292.53;;;1.14;78.76
3444;BME280;1736;52.068;6.968;2023-04-06T00:38:52;101285.88;;;1.06;78.57
3444;BME280;1736;52.068;6.968;2023-04-06T00:41:19;101290.28;;;1.04;78.13
3444;BME280;1736;52.068;6.968;2023-04-06T00:43:46;101285.06;;;1.04;79.02
3444;BME280;1736;52.068;6.968;2023-04-06T00:46:12;101282.63;;;0.99;79.02
3444;BME280;1736;52.068;6.968;2023-04-06T00:48:39;101286.19;;;0.97;79.77
3444;BME280;1736;52.068;6.968;2023-04-06T00:51:05;101285.38;;;0.95;79.75
3444;BME280;1736;52.068;6.968;2023-04-06T00:53:33;101281.97;;;0.93;80.58
3444;BME280;1736;52.068;6.968;2023-04-06T00:56:00;101283.16;;;0.84;79.90
3444;BME280;1736;52.068;6.968;2023-04-06T00:58:26;101280.72;;;0.80;80.19
3444;BME280;1736;52.068;6.968;2023-04-06T01:00:53;101276.50;;;0.76;79.42
3444;BME280;1736;52.068;6.968;2023-04-06T01:03:20;101267.84;;;0.74;79.88
3444;BME280;1736;52.068;6.968;2023-04-06T01:05:46;101268.75;;;0.73;79.53
3444;BME280;1736;52.068;6.968;2023-04-06T01:08:13;101263.63;;;0.70;78.95
3444;BME280;1736;52.068;6.968;2023-04-06T01:10:41;101260.00;;;0.74;78.91
3444;BME280;1736;52.068;6.968;2023-04-06T01:13:07;101254.78;;;0.74;79.40
3444;BME280;1736;52.068;6.968;2023-04-06T01:15:35;101258.41;;;0.70;79.93
3444;BME280;1736;52.068;6.968;2023-04-06T01:18:03;101261.13;;;0.67;79.89
3444;BME280;1736;52.068;6.968;2023-04-06T01:20:32;101257.03;;;0.60;79.79
3444;BME280;1736;52.068;6.968;2023-04-06T01:22:59;101257.03;;;0.60;80.20
3444;BME280;1736;52.068;6.968;2023-04-06T01:25:26;101251.84;;;0.58;80.53
3444;BME280;1736;52.068;6.968;2023-04-06T01:27:53;101249.38;;;0.54;81.10
3444;BME280;1736;52.068;6.968;2023-04-06T01:30:19;101246.81;;;0.52;80.80
3444;BME280;1736;52.068;6.968;2023-04-06T01:32:46;101246.88;;;0.51;80.86
3444;BME280;1736;52.068;6.968;2023-04-06T01:35:12;101241.56;;;0.54;81.25
3444;BME280;1736;52.068;6.968;2023-04-06T01:37:39;101241.59;;;0.52;81.39
3444;BME280;1736;52.068;6.968;2023-04-06T01:40:08;101237.28;;;0.51;80.97
3444;BME280;1736;52.068;6.968;2023-04-06T01:42:35;101234.81;;;0.47;80.98
3444;BME280;1736;52.068;6.968;2023-04-06T01:45:02;101241.13;;;0.41;81.04
3444;BME280;1736;52.068;6.968;2023-04-06T01:47:29;101231.84;;;0.33;81.05
3444;BME280;1736;52.068;6.968;2023-04-06T01:49:56;101238.97;;;0.28;81.07
3444;BME280;1736;52.068;6.968;2023-04-06T01:52:22;101236.50;;;0.23;81.12
3444;BME280;1736;52.068;6.968;2023-04-06T01:54:49;101238.41;;;0.18;81.44
3444;BME280;1736;52.068;6.968;2023-04-06T01:57:17;101242.75;;;0.17;81.78
3444;BME280;1736;52.068;6.968;2023-04-06T01:59:43;101235.84;;;0.17;82.01
3444;BME280;1736;52.068;6.968;2023-04-06T02:02:10;101241.16;;;0.13;82.47
3444;BME280;1736;52.068;6.968;2023-04-06T02:04:38;101234.38;;;0.08;82.03
3444;BME280;1736;52.068;6.968;2023-04-06T02:07:04;101235.38;;;0.04;82.18
3444;BME280;1736;52.068;6.968;2023-04-06T02:09:31;101236.94;;;0.09;82.46
3444;BME280;1736;52.068;6.968;2023-04-06T02:11:57;101225.81;;;0.04;82.86
3444;BME280;1736;52.068;6.968;2023-04-06T02:14:25;101229.41;;;0.00;83.14
3444;BME280;1736;52.068;6.968;2023-04-06T02:16:52;101227.63;;;0.03;83.55
3444;BME280;1736;52.068;6.968;2023-04-06T02:19:19;101223.41;;;-0.02;83.75
3444;BME280;1736;52.068;6.968;2023-04-06T02:21:45;101218.97;;;0.00;84.38
3444;BME280;1736;52.068;6.968;2023-04-06T02:24:12;101222.50;;;-0.01;84.30
3444;BME280;1736;52.068;6.968;2023-04-06T02:26:38;101217.28;;;-0.01;84.46
3444;BME280;1736;52.068;6.968;2023-04-06T02:29:05;101213.97;;;-0.06;83.83
3444;BME280;1736;52.068;6.968;2023-04-06T02:31:33;101215.75;;;-0.08;83.76
3444;BME280;1736;52.068;6.968;2023-04-06T02:33:59;101214.06;;;-0.09;83.68
3444;BME280;1736;52.068;6.968;2023-04-06T02:36:26;101216.47;;;-0.03;83.66
3444;BME280;1736;52.068;6.968;2023-04-06T02:38:52;101223.47;;;-0.03;83.84
3444;BME280;1736;52.068;6.968;2023-04-06T02:41:19;101216.28;;;0.03;83.69
3444;BME280;1736;52.068;6.968;2023-04-06T02:43:45;101218.16;;;0.00;83.73
3444;BME280;1736;52.068;6.968;2023-04-06T02:46:11;101207.88;;;-0.06;84.10
3444;BME280;1736;52.068;6.968;2023-04-06T02:48:39;101210.53;;;-0.08;83.92
3444;BME280;1736;52.068;6.968;2023-04-06T02:51:06;101202.09;;;-0.16;84.28
3444;BME280;1736;52.068;6.968;2023-04-06T02:53:32;101201.50;;;-0.24;84.36
3444;BME280;1736;52.068;6.968;2023-04-06T02:55:59;101198.97;;;-0.27;84.15
3444;BME280;1736;52.068;6.968;2023-04-06T02:58:25;101204.28;;;-0.28;84.50
3444;BME280;1736;52.068;6.968;2023-04-06T03:00:52;101200.06;;;-0.32;84.53
3444;BME280;1736;52.068;6.968;2023-04-06T03:03:18;101194.09;;;-0.37;84.83
3444;BME280;1736;52.068;6.968;2023-04-06T03:05:46;101199.22;;;-0.34;84.86
3444;BME280;1736;52.068;6.968;2023-04-06T03:08:13;101205.16;;;-0.29;84.96
3444;BME280;1736;52.068;6.968;2023-04-06T03:10:39;101195.78;;;-0.35;85.19
3444;BME280;1736;52.068;6.968;2023-04-06T03:13:06;101196.09;;;-0.45;84.73
3444;BME280;1736;52.068;6.968;2023-04-06T03:15:33;101198.66;;;-0.44;84.89
3444;BME280;1736;52.068;6.968;2023-04-06T03:17:59;101190.84;;;-0.44;85.42
3444;BME280;1736;52.068;6.968;2023-04-06T03:20:26;101188.38;;;-0.48;85.74
3444;BME280;1736;52.068;6.968;2023-04-06T03:22:54;101185.75;;;-0.47;86.07
3444;BME280;1736;52.068;6.968;2023-04-06T03:25:20;101186.63;;;-0.48;86.46
3444;BME280;1736;52.068;6.968;2023-04-06T03:27:47;101185.75;;;-0.47;86.25
3444;BME280;1736;52.068;6.968;2023-04-06T03:30:14;101181.50;;;-0.51;86.71
3444;BME280;1736;52.068;6.968;2023-04-06T03:32:41;101182.38;;;-0.52;86.39
3444;BME280;1736;52.068;6.968;2023-04-06T03:35:08;101185.16;;;-0.56;86.56
3444;BME280;1736;52.068;6.968;2023-04-06T03:37:35;101190.41;;;-0.58;86.89
3444;BME280;1736;52.068;6.968;2023-04-06T03:40:04;101189.63;;;-0.61;86.77
3444;BME280;1736;52.068;6.968;2023-04-06T03:42:31;101185.38;;;-0.64;86.77
3444;BME280;1736;52.068;6.968;2023-04-06T03:44:58;101181.97;;;-0.66;86.83
3444;BME280;1736;52.068;6.968;2023-04-06T03:47:25;101177.56;;;-0.64;86.73
3444;BME280;1736;52.068;6.968;2023-04-06T03:49:51;101190.69;;;-0.67;86.74
3444;BME280;1736;52.068;6.968;2023-04-06T03:52:18;101191.56;;;-0.68;86.64
3444;BME280;1736;52.068;6.968;2023-04-06T03:54:44;101189.63;;;-0.61;86.46
3444;BME280;1736;52.068;6.968;2023-04-06T03:57:13;101191.53;;;-0.66;86.55
3444;BME280;1736;52.068;6.968;2023-04-06T03:59:39;101190.78;;;-0.70;86.71
3444;BME280;1736;52.068;6.968;2023-04-06T04:02:06;101185.56;;;-0.70;86.63
3444;BME280;1736;52.068;6.968;2023-04-06T04:04:33;101184.88;;;-0.75;86.52
3444;BME280;1736;52.068;6.968;2023-04-06T04:06:59;101190.16;;;-0.78;86.52
3444;BME280;1736;52.068;6.968;2023-04-06T04:09:26;101184.06;;;-0.78;86.41
3444;BME280;1736;52.068;6.968;2023-04-06T04:11:52;101187.53;;;-0.78;86.32
3444;BME280;1736;52.068;6.968;2023-04-06T04:14:20;101184.97;;;-0.79;86.42
3444;BME280;1736;52.068;6.968;2023-04-06T04:16:46;101189.25;;;-0.77;85.71
3444;BME280;1736;52.068;6.968;2023-04-06T04:19:13;101186.63;;;-0.77;85.36
3444;BME280;1736;52.068;6.968;2023-04-06T04:21:42;101187.50;;;-0.76;84.78
3444;BME280;1736;52.068;6.968;2023-04-06T04:24:10;101183.97;;;-0.74;84.39
3444;BME280;1736;52.068;6.968;2023-04-06T04:26:38;101183.25;;;-0.79;83.83
3444;BME280;1736;52.068;6.968;2023-04-06T04:29:04;101190.31;;;-0.84;84.34
3444;BME280;1736;52.068;6.968;2023-04-06T04:31:32;101183.41;;;-0.85;84.80
3444;BME280;1736;52.068;6.968;2023-04-06T04:33:59;101187.72;;;-0.84;84.82
3444;BME280;1736;52.068;6.968;2023-04-06T04:36:26;101187.78;;;-0.85;84.80
3444;BME280;1736;52.068;6.968;2023-04-06T04:38:53;101183.50;;;-0.88;84.68
3444;BME280;1736;52.068;6.968;2023-04-06T04:41:20;101175.56;;;-0.83;84.65
3444;BME280;1736;52.068;6.968;2023-04-06T04:43:46;101185.03;;;-0.81;84.69
3444;BME280;1736;52.068;6.968;2023-04-06T04:46:13;101179.91;;;-0.84;84.88
3444;BME280;1736;52.068;6.968;2023-04-06T04:48:41;101172.88;;;-0.80;84.69
3444;BME280;1736;52.068;6.968;2023-04-06T04:51:07;101178.78;;;-0.75;84.11
3444;BME280;1736;52.068;6.968;2023-04-06T04:53:34;101178.88;;;-0.78;84.12
3444;BME280;1736;52.068;6.968;2023-04-06T04:56:00;101175.22;;;-0.73;84.29
3444;BME280;1736;52.068;6.968;2023-04-06T04:58:27;101175.22;;;-0.73;84.06
3444;BME280;1736;52.068;6.968;2023-04-06T05:00:53;101175.16;;;-0.70;84.30
3444;BME280;1736;52.068;6.968;2023-04-06T05:03:22;101172.53;;;-0.70;84.42
3444;BME280;1736;52.068;6.968;2023-04-06T05:05:50;101179.38;;;-0.66;83.86
3444;BME280;1736;52.068;6.968;2023-04-06T05:08:17;101168.78;;;-0.61;83.68
3444;BME280;1736;52.068;6.968;2023-04-06T05:10:44;101180.00;;;-0.58;83.54
3444;BME280;1736;52.068;6.968;2023-04-06T05:13:11;101175.59;;;-0.57;84.11
3444;BME280;1736;52.068;6.968;2023-04-06T05:15:39;101179.91;;;-0.55;83.99
3444;BME280;1736;52.068;6.968;2023-04-06T05:18:06;101178.03;;;-0.51;83.97
3444;BME280;1736;52.068;6.968;2023-04-06T05:20:33;101180.41;;;-0.44;83.61
3444;BME280;1736;52.068;6.968;2023-04-06T05:23:01;101174.06;;;-0.35;83.23
3444;BME280;1736;52.068;6.968;2023-04-06T05:25:28;101183.53;;;-0.33;83.17
3444;BME280;1736;52.068;6.968;2023-04-06T05:27:54;101181.63;;;-0.28;83.07
3444;BME280;1736;52.068;6.968;2023-04-06T05:30:21;101175.50;;;-0.27;83.27
3444;BME280;1736;52.068;6.968;2023-04-06T05:32:48;101172.81;;;-0.24;83.33
3444;BME280;1736;52.068;6.968;2023-04-06T05:35:14;101167.41;;;-0.18;83.19
3444;BME280;1736;52.068;6.968;2023-04-06T05:37:42;101172.28;;;-0.07;82.89
3444;BME280;1736;52.068;6.968;2023-04-06T05:40:10;101167.75;;;-0.02;82.19
3444;BME280;1736;52.068;6.968;2023-04-06T05:42:37;101171.84;;;0.07;82.32
3444;BME280;1736;52.068;6.968;2023-04-06T05:45:04;101162.88;;;0.13;82.28
3444;BME280;1736;52.068;6.968;2023-04-06T05:47:31;101174.69;;;0.25;82.01
3444;BME280;1736;52.068;6.968;2023-04-06T05:49:58;101165.50;;;0.38;81.65
3444;BME280;1736;52.068;6.968;2023-04-06T05:52:24;101164.84;;;0.56;81.05
3444;BME280;1736;52.068;6.968;2023-04-06T05:54:51;101175.50;;;0.75;80.55
3444;BME280;1736;52.068;6.968;2023-04-06T05:57:19;101165.31;;;0.92;80.56
3444;BME280;1736;52.068;6.968;2023-04-06T05:59:45;101166.38;;;1.09;80.65
3444;BME280;1736;52.068;6.968;2023-04-06T06:02:12;101161.31;;;1.28;80.84
3444;BME280;1736;52.068;6.968;2023-04-06T06:04:39;101169.28;;;1.46;80.32
3444;BME280;1736;52.068;6.968;2023-04-06T06:07:05;101163.41;;;1.63;79.85
3444;BME280;1736;52.068;6.968;2023-04-06T06:09:32;101161.78;;;1.82;79.49
3444;BME280;1736;52.068;6.968;2023-04-06T06:11:59;101155.66;;;2.03;78.14
3444;BME280;1736;52.068;6.968;2023-04-06T06:14:27;101160.28;;;2.18;77.28
3444;BME280;1736;52.068;6.968;2023-04-06T06:16:54;101158.38;;;2.41;76.47
3444;BME280;1736;52.068;6.968;2023-04-06T06:19:21;101162.50;;;2.67;75.29
3444;BME280;1736;52.068;6.968;2023-04-06T06:21:47;101158.91;;;2.88;73.97
3444;BME280;1736;52.068;6.968;2023-04-06T06:24:14;101164.13;;;3.08;72.55
3444;BME280;1736;52.068;6.968;2023-04-06T06:26:40;101161.25;;;3.31;71.35
3444;BME280;1736;52.068;6.968;2023-04-06T06:29:08;101165.16;;;3.59;70.73
3444;BME280;1736;52.068;6.968;2023-04-06T06:31:36;101158.31;;;3.74;69.66
3444;BME280;1736;52.068;6.968;2023-04-06T06:34:02;101164.69;;;3.87;68.58
3444;BME280;1736;52.068;6.968;2023-04-06T06:36:29;101167.50;;;4.01;68.13
3444;BME280;1736;52.068;6.968;2023-04-06T06:38:56;101163.25;;;4.15;66.95
3444;BME280;1736;52.068;6.968;2023-04-06T06:41:23;101168.19;;;4.38;66.78
3444;BME280;1736;52.068;6.968;2023-04-06T06:43:50;101164.25;;;4.47;66.49
3444;BME280;1736;52.068;6.968;2023-04-06T06:46:16;101169.00;;;4.73;65.43
3444;BME280;1736;52.068;6.968;2023-04-06T06:48:44;101162.34;;;4.83;64.71
3444;BME280;1736;52.068;6.968;2023-04-06T06:51:10;101159.53;;;5.03;63.80
3444;BME280;1736;52.068;6.968;2023-04-06T06:53:37;101157.59;;;5.22;63.81
3444;BME280;1736;52.068;6.968;2023-04-06T06:56:04;101170.50;;;5.26;62.68
3444;BME280;1736;52.068;6.968;2023-04-06T06:58:30;101162.53;;;5.43;61.89
3444;BME280;1736;52.068;6.968;2023-04-06T07:00:57;101164.31;;;5.58;61.89
3444;BME280;1736;52.068;6.968;2023-04-06T07:03:24;101171.72;;;5.68;60.85
3444;BME280;1736;52.068;6.968;2023-04-06T07:05:52;101164.22;;;5.91;60.54
3444;BME280;1736;52.068;6.968;2023-04-06T07:08:19;101161.19;;;5.99;59.74
3444;BME280;1736;52.068;6.968;2023-04-06T07:10:46;101159.44;;;6.13;60.15
3444;BME280;1736;52.068;6.968;2023-04-06T07:13:12;101163.06;;;6.26;60.28
3444;BME280;1736;52.068;6.968;2023-04-06T07:15:43;101155.38;;;6.37;59.30
3444;BME280;1736;52.068;6.968;2023-04-06T07:18:09;101160.41;;;6.56;58.59
3444;BME280;1736;52.068;6.968;2023-04-06T07:20:36;101159.94;;;6.63;59.04
3444;BME280;1736;52.068;6.968;2023-04-06T07:23:04;101149.31;;;6.79;59.22
3444;BME280;1736;52.068;6.968;2023-04-06T07:25:30;101157.44;;;6.90;59.71
3444;BME280;1736;52.068;6.968;2023-04-06T07:27:57;101156.84;;;6.99;58.82
3444;BME280;1736;52.068;6.968;2023-04-06T07:30:24;101154.31;;;6.97;58.29
3444;BME280;1736;52.068;6.968;2023-04-06T07:32:51;101154.53;;;7.22;58.42
3444;BME280;1736;52.068;6.968;2023-04-06T07:35:19;101151.47;;;7.28;58.03
3444;BME280;1736;52.068;6.968;2023-04-06T07:37:46;101158.44;;;7.43;56.75
3444;BME280;1736;52.068;6.968;2023-04-06T07:40:14;101154.34;;;7.66;56.23
3444;BME280;1736;52.068;6.968;2023-04-06T07:42:40;101151.09;;;7.75;55.20
3444;BME280;1736;52.068;6.968;2023-04-06T07:45:07;101157.34;;;8.00;54.77
3444;BME280;1736;52.068;6.968;2023-04-06T07:47:34;101156.28;;;8.03;54.61
3444;BME280;1736;52.068;6.968;2023-04-06T07:50:00;101150.91;;;8.17;53.32
3444;BME280;1736;52.068;6.968;2023-04-06T07:52:27;101149.59;;;8.24;53.61
3444;BME280;1736;52.068;6.968;2023-04-06T07:54:53;101161.13;;;8.23;53.73
3444;BME280;1736;52.068;6.968;2023-04-06T07:57:21;101145.09;;;8.38;53.52
3444;BME280;1736;52.068;6.968;2023-04-06T07:59:48;101142.78;;;8.46;53.58
3444;BME280;1736;52.068;6.968;2023-04-06T08:02:14;101150.19;;;8.66;52.57
3444;BME280;1736;52.068;6.968;2023-04-06T08:04:41;101142.38;;;8.77;52.05
3444;BME280;1736;52.068;6.968;2023-04-06T08:07:07;101148.50;;;8.78;51.67
3444;BME280;1736;52.068;6.968;2023-04-06T08:09:34;101158.03;;;8.80;52.61
3444;BME280;1736;52.068;6.968;2023-04-06T08:12:01;101148.00;;;8.85;51.57
3444;BME280;1736;52.068;6.968;2023-04-06T08:14:29;101147.88;;;8.74;51.98
3444;BME280;1736;52.068;6.968;2023-04-06T08:16:55;101148.00;;;8.85;52.76
3444;BME280;1736;52.068;6.968;2023-04-06T08:19:22;101148.94;;;8.72;53.31
3444;BME280;1736;52.068;6.968;2023-04-06T08:21:48;101142.59;;;8.87;52.98
3444;BME280;1736;52.068;6.968;2023-04-06T08:24:16;101144.09;;;8.91;53.23
3444;BME280;1736;52.068;6.968;2023-04-06T08:26:43;101136.88;;;9.05;52.74
3444;BME280;1736;52.068;6.968;2023-04-06T08:29:09;101134.28;;;9.29;52.86
3444;BME280;1736;52.068;6.968;2023-04-06T08:31:37;101139.53;;;9.41;51.30
3444;BME280;1736;52.068;6.968;2023-04-06T08:34:04;101134.38;;;9.63;51.91
3444;BME280;1736;52.068;6.968;2023-04-06T08:36:32;101134.75;;;9.82;49.81
3444;BME280;1736;52.068;6.968;2023-04-06T08:38:59;101133.31;;;9.89;49.24
3444;BME280;1736;52.068;6.968;2023-04-06T08:41:27;101129.84;;;10.12;48.16
3444;BME280;1736;52.068;6.968;2023-04-06T08:43:57;101127.91;;;10.14;48.83
3444;BME280;1736;52.068;6.968;2023-04-06T08:46:24;101125.34;;;10.36;47.35
3444;BME280;1736;52.068;6.968;2023-04-06T08:48:57;101127.47;;;10.66;46.02
3444;BME280;1736;52.068;6.968;2023-04-06T08:51:24;101122.06;;;10.79;45.39
3444;BME280;1736;52.068;6.968;2023-04-06T08:53:52;101120.38;;;11.00;45.18
3444;BME280;1736;52.068;6.968;2023-04-06T08:56:21;101118.31;;;11.14;45.17
3444;BME280;1736;52.068;6.968;2023-04-06T08:58:48;101124.72;;;11.23;44.46
3444;BME280;1736;52.068;6.968;2023-04-06T09:01:17;101122.31;;;11.42;44.06
3444;BME280;1736;52.068;6.968;2023-04-06T09:03:44;101116.50;;;11.70;42.62
3444;BME280;1736;52.068;6.968;2023-04-06T09:06:13;101131.34;;;11.72;42.68
3444;BME280;1736;52.068;6.968;2023-04-06T09:08:41;101124.00;;;11.96;42.11
3444;BME280;1736;52.068;6.968;2023-04-06T09:11:07;101125.34;;;11.91;41.86
3444;BME280;1736;52.068;6.968;2023-04-06T09:13:44;101123.59;;;12.12;40.98
3444;BME280;1736;52.068;6.968;2023-04-06T09:16:11;101128.56;;;12.05;41.92
3444;BME280;1736;52.068;6.968;2023-04-06T09:18:38;101119.25;;;12.11;42.14
3444;BME280;1736;52.068;6.968;2023-04-06T09:21:06;101125.44;;;12.32;41.63
3444;BME280;1736;52.068;6.968;2023-04-06T09:23:34;101128.09;;;12.32;42.15
3444;BME280;1736;52.068;6.968;2023-04-06T09:26:09;101124.00;;;12.28;41.20
3444;BME280;1736;52.068;6.968;2023-04-06T09:28:43;101128.38;;;12.18;41.45
3444;BME280;1736;52.068;6.968;2023-04-06T09:31:10;101122.72;;;12.43;41.28
3444;BME280;1736;52.068;6.968;2023-04-06T09:33:38;101120.94;;;12.53;41.17
3444;BME280;1736;52.068;6.968;2023-04-06T09:36:06;101113.03;;;12.62;40.29
3444;BME280;1736;52.068;6.968;2023-04-06T09:38:36;101123.34;;;12.56;41.13
3444;BME280;1736;52.068;6.968;2023-04-06T09:41:03;101108.66;;;12.82;41.28
3444;BME280;1736;52.068;6.968;2023-04-06T09:43:30;101099.22;;;12.78;40.40
3444;BME280;1736;52.068;6.968;2023-04-06T09:45:56;101105.88;;;12.63;40.61
3444;BME280;1736;52.068;6.968;2023-04-06T09:48:24;101099.41;;;12.56;40.90
3444;BME280;1736;52.068;6.968;2023-04-06T09:50:54;101102.94;;;12.86;40.05
3444;BME280;1736;52.068;6.968;2023-04-06T09:53:25;101100.44;;;12.94;40.18
3444;BME280;1736;52.068;6.968;2023-04-06T09:55:57;101102.72;;;12.99;39.48
3444;BME280;1736;52.068;6.968;2023-04-06T09:58:33;101101.72;;;12.70;39.07
3444;BME280;1736;52.068;6.968;2023-04-06T10:01:04;101090.19;;;12.90;38.01
3444;BME280;1736;52.068;6.968;2023-04-06T10:03:36;101102.22;;;13.05;38.80
3444;BME280;1736;52.068;6.968;2023-04-06T10:06:10;101097.06;;;13.13;38.50
3444;BME280;1736;52.068;6.968;2023-04-06T10:08:38;101093.06;;;12.98;38.90
3444;BME280;1736;52.068;6.968;2023-04-06T10:11:08;101091.28;;;13.08;38.18
3444;BME280;1736;52.068;6.968;2023-04-06T10:13:35;101092.38;;;13.05;39.26
3444;BME280;1736;52.068;6.968;2023-04-06T10:16:02;101088.34;;;13.11;38.49
3444;BME280;1736;52.068;6.968;2023-04-06T10:18:30;101086.41;;;13.13;38.38
3444;BME280;1736;52.068;6.968;2023-04-06T10:21:01;101092.84;;;13.10;39.81
3444;BME280;1736;52.068;6.968;2023-04-06T10:23:33;101083.31;;;12.87;40.04
3444;BME280;1736;52.068;6.968;2023-04-06T10:26:02;101090.91;;;12.92;39.94
3444;BME280;1736;52.068;6.968;2023-04-06T10:28:33;101078.75;;;12.99;39.82
3444;BME280;1736;52.068;6.968;2023-04-06T10:31:02;101081.34;;;13.10;40.14
3444;BME280;1736;52.068;6.968;2023-04-06T10:33:30;101073.81;;;13.24;40.39
3444;BME280;1736;52.068;6.968;2023-04-06T10:35:57;101080.50;;;13.19;39.26
3444;BME280;1736;52.068;6.968;2023-04-06T10:38:33;101082.09;;;13.31;37.39
3444;BME280;1736;52.068;6.968;2023-04-06T10:41:04;101080.44;;;13.39;36.22
3444;BME280;1736;52.068;6.968;2023-04-06T10:43:34;101074.66;;;13.25;36.11
3444;BME280;1736;52.068;6.968;2023-04-06T10:46:02;101071.34;;;13.42;36.13
3444;BME280;1736;52.068;6.968;2023-04-06T10:48:37;101070.75;;;13.29;36.54
3444;BME280;1736;52.068;6.968;2023-04-06T10:51:07;101065.44;;;13.48;36.54
3444;BME280;1736;52.068;6.968;2023-04-06T10:53:34;101063.66;;;13.58;36.54
3444;BME280;1736;52.068;6.968;2023-04-06T10:56:02;101062.94;;;13.56;36.41
3444;BME280;1736;52.068;6.968;2023-04-06T10:58:29;101069.41;;;13.63;35.85
3444;BME280;1736;52.068;6.968;2023-04-06T11:00:57;101067.59;;;13.63;36.26
3444;BME280;1736;52.068;6.968;2023-04-06T11:03:24;101061.25;;;13.55;36.89
3444;BME280;1736;52.068;6.968;2023-04-06T11:05:52;101057.06;;;13.62;37.21
3444;BME280;1736;52.068;6.968;2023-04-06T11:08:22;101056.63;;;13.76;36.44
3444;BME280;1736;52.068;6.968;2023-04-06T11:10:49;101053.13;;;14.04;35.94
3444;BME280;1736;52.068;6.968;2023-04-06T11:13:15;101053.56;;;13.99;35.90
3444;BME280;1736;52.068;6.968;2023-04-06T11:15:42;101057.75;;;14.11;36.35
3444;BME280;1736;52.068;6.968;2023-04-06T11:18:10;101047.50;;;14.07;36.53
3444;BME280;1736;52.068;6.968;2023-04-06T11:20:37;101050.06;;;13.99;36.61
3444;BME280;1736;52.068;6.968;2023-04-06T11:23:03;101044.28;;;14.13;36.46
3444;BME280;1736;52.068;6.968;2023-04-06T11:25:30;101044.72;;;14.18;35.96
3444;BME280;1736;52.068;6.968;2023-04-06T11:27:57;101044.44;;;14.21;35.61
3444;BME280;1736;52.068;6.968;2023-04-06T11:30:24;101050.03;;;14.18;35.98
3444;BME280;1736;52.068;6.968;2023-04-06T11:32:50;101049.22;;;14.27;36.01
3444;BME280;1736;52.068;6.968;2023-04-06T11:35:22;101040.19;;;14.37;35.59
3444;BME280;1736;52.068;6.968;2023-04-06T11:37:50;101039.59;;;14.53;35.58
3444;BME280;1736;52.068;6.968;2023-04-06T11:40:20;101043.25;;;14.52;36.10
3444;BME280;1736;52.068;6.968;2023-04-06T11:42:52;101044.41;;;14.40;35.87
3444;BME280;1736;52.068;6.968;2023-04-06T11:45:18;101032.78;;;14.22;36.50
3444;BME280;1736;52.068;6.968;2023-04-06T11:47:45;101039.91;;;14.12;35.97
3444;BME280;1736;52.068;6.968;2023-04-06T11:50:13;101029.94;;;14.33;36.08
3444;BME280;1736;52.068;6.968;2023-04-06T11:52:42;101030.66;;;14.35;35.79
3444;BME280;1736;52.068;6.968;2023-04-06T11:55:13;101029.94;;;14.23;36.02
3444;BME280;1736;52.068;6.968;2023-04-06T11:57:41;101028.13;;;14.24;36.17
3444;BME280;1736;52.068;6.968;2023-04-06T12:00:09;101020.25;;;14.13;36.03
3444;BME280;1736;52.068;6.968;2023-04-06T12:02:35;101016.88;;;14.20;36.28
3444;BME280;1736;52.068;6.968;2023-04-06T12:05:03;101016.59;;;14.33;37.56
3444;BME280;1736;52.068;6.968;2023-04-06T12:07:31;101023.34;;;14.18;37.72
3444;BME280;1736;52.068;6.968;2023-04-06T12:10:02;101016.59;;;14.23;37.30
3444;BME280;1736;52.068;6.968;2023-04-06T12:12:29;101018.44;;;14.32;37.32
3444;BME280;1736;52.068;6.968;2023-04-06T12:14:56;101013.25;;;14.31;36.52
3444;BME280;1736;52.068;6.968;2023-04-06T12:17:22;101014.91;;;14.32;36.67
3444;BME280;1736;52.068;6.968;2023-04-06T12:19:49;101010.97;;;14.36;36.63
3444;BME280;1736;52.068;6.968;2023-04-06T12:22:15;101012.66;;;14.37;37.10
3444;BME280;1736;52.068;6.968;2023-04-06T12:24:42;101010.94;;;14.55;37.29
3444;BME280;1736;52.068;6.968;2023-04-06T12:27:10;101003.59;;;14.57;37.04
3444;BME280;1736;52.068;6.968;2023-04-06T12:29:37;101006.16;;;14.49;37.69
3444;BME280;1736;52.068;6.968;2023-04-06T12:32:03;101004.53;;;14.29;38.64
3444;BME280;1736;52.068;6.968;2023-04-06T12:34:30;101010.34;;;14.51;38.25
3444;BME280;1736;52.068;6.968;2023-04-06T12:36:57;101020.38;;;14.40;39.40
3444;BME280;1736;52.068;6.968;2023-04-06T12:39:23;101005.75;;;14.44;38.33
3444;BME280;1736;52.068;6.968;2023-04-06T12:41:50;101012.13;;;14.70;38.69
3444;BME280;1736;52.068;6.968;2023-04-06T12:44:18;101009.50;;;14.60;38.48
3444;BME280;1736;52.068;6.968;2023-04-06T12:46:45;101000.78;;;14.58;38.26
3444;BME280;1736;52.068;6.968;2023-04-06T12:49:11;101013.28;;;14.58;37.83
3444;BME280;1736;52.068;6.968;2023-04-06T12:51:38;101015.22;;;14.75;38.52
3444;BME280;1736;52.068;6.968;2023-04-06T12:54:04;101017.00;;;14.84;38.67
3444;BME280;1736;52.068;6.968;2023-04-06T12:56:31;101017.28;;;14.81;38.16
3444;BME280;1736;52.068;6.968;2023-04-06T12:58:58;101017.09;;;14.92;37.92
3444;BME280;1736;52.068;6.968;2023-04-06T13:01:25;101009.38;;;14.89;37.92
3444;BME280;1736;52.068;6.968;2023-04-06T13:03:53;101016.50;;;14.71;38.63
3444;BME280;1736;52.068;6.968;2023-04-06T13:06:19;101012.09;;;14.43;38.37
3444;BME280;1736;52.068;6.968;2023-04-06T13:08:46;101015.50;;;14.26;39.28
3444;BME280;1736;52.068;6.968;2023-04-06T13:11:15;101009.28;;;14.44;39.63
3444;BME280;1736;52.068;6.968;2023-04-06T13:13:44;101012.75;;;14.45;40.47
3444;BME280;1736;52.068;6.968;2023-04-06T13:16:10;101009.59;;;14.22;40.70